メインページ
METAR-TAF:

METAR-TAF

空港 :

ドーハ国際空港

ドーハ, カタール

緯度: 25-15-40N, 経度: 051-33-54E, 海抜: 11m

現時点の気象観測

当レポートは32分前の18:00(UTC)に作成
東/南東の風 11kt
気温 28°C
湿度 45%
気圧 1015 hPa
視程10km以上
高度3000ftの雲はほとんどない

METAR: OTBD 171800Z 12011KT 9999 FEW030 28/15 Q1015 NOSIG

時間: 21:32 (18:32 UTC)

予報

当レポートは1時間29分前の17:03(UTC)に作成
予報は17日の 18時(UTC)から 18日の 24時(UTC)まで有効
の風 8kt
視程10km以上
高度12000ftの千切れ雲あり
17日の 23時(UTC)から 18日の 01時(UTC)まで徐々に
の風 6kt
18日の 10時(UTC)から 18日の 12時(UTC)まで徐々に
東/南東の風 11kt
視程10km以上
1,500メートル以下は雲なし、積乱雲なし

TAF: OTBD 171703Z 1718/1824 09008KT 9999 BKN120 BECMG 1723/1801 17006KT BECMG 1810/1812 11011KT CAVOK

4,000以上の空港の気象観測と天気予報(METAR報とTAF報)

利用可能な観測所は地図上に黄色い丸と赤い丸で示す。

丸の上にカーソルを重ねると観測所名を参照できる。

次にクリックすると気象観測と天気予報を参照できる。

マップの切り替え:黒色「×」印の緑ボタンをクリックして拡大、「-」印の緑ボタンをクリックして縮小、緑色の三角印をクリックして隣りの地図に切り替え


METAR-TAF: